Time;durP1;ratioP1;P1;durP2;ratioP2;P2;SDS_P1;SDS_P2;PMS_P1;PMS_P2;Temp;Humidity;BMP_temperature;BMP_pressure;BME280_temperature;BME280_humidity;BME280_pressure;Samples;Min_cycle;Max_cycle;Signal;HPM_P1;HPM_P2
2021/09/12 00:02:08;;;;;;;31.38;23.23;;;;;;;17.68;93.99;101479.38;10111759;28;20150;-70
2021/09/12 00:07:05;;;;;;;29.48;20.77;;;;;;;17.66;94.15;101476.16;10097122;28;20046;-70
2021/09/12 00:12:01;;;;;;;28.17;20.95;;;;;;;17.67;94.26;101472.25;10102126;28;20050;-68
2021/09/12 00:16:58;;;;;;;27.67;19.65;;;;;;;17.64;94.22;101472.97;10102776;28;20491;-69
2021/09/12 00:21:54;;;;;;;28.27;19.42;;;;;;;17.65;93.94;101469.81;10114277;28;20079;-70
2021/09/12 00:26:51;;;;;;;25.95;18.95;;;;;;;17.65;93.91;101463.50;10096277;28;20085;-71
2021/09/12 00:31:48;;;;;;;26.13;18.88;;;;;;;17.62;93.20;101464.19;10110132;28;20190;-70
2021/09/12 00:36:45;;;;;;;31.42;19.88;;;;;;;17.62;93.13;101453.13;10108906;28;20106;-71
2021/09/12 00:41:43;;;;;;;25.13;18.50;;;;;;;17.60;92.87;101450.72;10109288;28;20121;-71
2021/09/12 00:46:45;;;;;;;26.35;17.95;;;;;;;17.58;92.97;101452.22;10097623;28;20105;-69
2021/09/12 00:51:41;;;;;;;30.77;20.55;;;;;;;17.57;92.66;101445.09;10106689;28;20078;-69
2021/09/12 00:56:40;;;;;;;27.42;19.50;;;;;;;17.53;92.35;101441.41;10113625;28;20070;-70
2021/09/12 01:01:39;;;;;;;26.15;18.77;;;;;;;17.50;92.83;101459.50;10112770;28;20043;-70
2021/09/12 01:06:36;;;;;;;32.35;21.85;;;;;;;17.44;93.13;101469.97;10108797;28;20047;-69
2021/09/12 01:11:33;;;;;;;25.98;19.55;;;;;;;17.52;93.53;101471.00;10107888;28;20097;-70
2021/09/12 01:16:30;;;;;;;33.08;22.35;;;;;;;17.49;93.43;101465.34;10108222;28;20070;-70
2021/09/12 01:21:27;;;;;;;28.05;20.70;;;;;;;17.50;93.58;101450.38;10108200;28;20078;-69
2021/09/12 01:26:26;;;;;;;31.70;21.65;;;;;;;17.50;93.36;101450.38;10108288;28;20134;-69
2021/09/12 01:31:25;;;;;;;31.25;22.27;;;;;;;17.41;94.06;101453.28;10106220;28;20458;-69
2021/09/12 01:36:24;;;;;;;29.77;22.45;;;;;;;17.45;94.11;101457.75;10107489;28;20051;-71
2021/09/12 01:41:20;;;;;;;30.50;23.25;;;;;;;17.45;93.88;101456.94;10108558;28;20395;-71
2021/09/12 01:46:18;;;;;;;33.25;24.77;;;;;;;17.43;93.47;101446.25;10101635;28;20495;-71
2021/09/12 01:51:14;;;;;;;35.13;24.98;;;;;;;17.44;93.90;101447.03;10110444;28;20471;-69
2021/09/12 01:56:18;;;;;;;36.03;24.58;;;;;;;17.43;93.79;101440.72;10094533;28;20755;-69
2021/09/12 02:01:14;;;;;;;35.03;24.75;;;;;;;17.48;93.95;101444.41;10100574;28;20059;-69
2021/09/12 02:06:11;;;;;;;37.53;25.05;;;;;;;17.48;93.81;101445.22;10101811;28;20094;-68
2021/09/12 02:11:09;;;;;;;32.60;23.60;;;;;;;17.46;93.73;101444.75;10102240;28;20418;-68
2021/09/12 02:16:06;;;;;;;34.13;25.02;;;;;;;17.44;93.47;101450.59;10105498;28;20451;-68
2021/09/12 02:21:02;;;;;;;36.45;22.63;;;;;;;17.42;93.96;101452.91;10101636;28;20043;-68
2021/09/12 02:25:59;;;;;;;40.00;26.85;;;;;;;17.40;93.79;101457.97;10097978;28;20106;-68
2021/09/12 02:30:55;;;;;;;39.15;25.67;;;;;;;17.39;94.02;101450.84;10106373;28;20079;-68
2021/09/12 02:35:52;;;;;;;32.50;24.88;;;;;;;17.37;93.95;101450.38;10101944;28;20518;-68
2021/09/12 02:40:48;;;;;;;35.50;25.40;;;;;;;17.36;94.16;101457.06;10104004;28;20066;-67
2021/09/12 02:45:45;;;;;;;35.13;25.02;;;;;;;17.38;93.91;101459.47;10104263;28;20066;-70
2021/09/12 02:50:41;;;;;;;36.78;26.58;;;;;;;17.38;93.98;101465.84;10106711;28;20047;-69
2021/09/12 02:55:38;;;;;;;34.85;26.52;;;;;;;17.33;93.92;101474.34;10095444;28;20477;-68
2021/09/12 03:00:34;;;;;;;41.38;27.65;;;;;;;17.30;94.41;101469.50;10101643;28;20495;-68
2021/09/12 03:05:31;;;;;;;37.60;26.65;;;;;;;17.28;94.55;101476.53;10100360;28;20474;-68
2021/09/12 03:10:27;;;;;;;36.33;25.60;;;;;;;17.30;94.60;101472.28;10101036;28;20610;-68
2021/09/12 03:15:24;;;;;;;34.92;27.20;;;;;;;17.28;94.53;101473.78;10107597;28;20549;-69
2021/09/12 03:20:20;;;;;;;34.83;27.15;;;;;;;17.29;94.01;101467.06;10098672;28;20047;-68
2021/09/12 03:25:17;;;;;;;39.60;27.40;;;;;;;17.27;94.06;101470.22;10099317;28;20059;-68
2021/09/12 03:30:13;;;;;;;36.03;26.52;;;;;;;17.21;93.34;101457.75;10104736;28;20131;-69
2021/09/12 03:35:10;;;;;;;32.30;23.63;;;;;;;17.21;93.16;101460.53;10094939;28;20055;-69
2021/09/12 03:40:08;;;;;;;33.00;24.33;;;;;;;17.24;93.12;101457.06;10110507;28;20471;-69
2021/09/12 03:45:05;;;;;;;30.77;23.48;;;;;;;17.25;92.85;101461.44;10108509;28;20055;-70
2021/09/12 03:50:02;;;;;;;35.40;24.63;;;;;;;17.20;92.81;101464.44;10115052;28;20086;-68
2021/09/12 03:54:59;;;;;;;32.30;24.42;;;;;;;17.18;92.75;101462.03;10108045;28;20093;-69
2021/09/12 03:59:55;;;;;;;36.20;26.92;;;;;;;17.09;92.28;101452.22;10106627;28;20067;-68
2021/09/12 04:04:52;;;;;;;39.05;28.65;;;;;;;17.00;92.91;101461.41;10104039;28;20487;-66
2021/09/12 04:09:48;;;;;;;39.13;27.92;;;;;;;17.03;92.77;101466.28;10105776;28;20510;-68
2021/09/12 04:14:45;;;;;;;36.55;27.10;;;;;;;17.03;93.27;101460.75;10098667;28;20478;-67
2021/09/12 04:19:41;;;;;;;37.58;27.92;;;;;;;17.03;93.32;101466.28;10109722;28;20098;-67
2021/09/12 04:24:38;;;;;;;43.53;29.52;;;;;;;16.97;93.78;101467.63;10102857;28;20086;-67
2021/09/12 04:29:35;;;;;;;37.38;28.40;;;;;;;16.96;93.68;101454.97;10113012;28;20054;-70
2021/09/12 04:34:31;;;;;;;42.30;30.13;;;;;;;16.94;94.27;101460.06;10093401;28;20098;-68
2021/09/12 04:39:28;;;;;;;39.50;27.70;;;;;;;16.98;94.14;101466.47;10094373;28;20151;-68
2021/09/12 04:44:24;;;;;;;38.13;29.85;;;;;;;17.00;93.92;101474.44;10105001;28;20054;-68
2021/09/12 04:49:20;;;;;;;37.92;27.65;;;;;;;17.01;93.47;101474.09;10105264;28;20573;-68
2021/09/12 04:54:17;;;;;;;39.00;28.30;;;;;;;16.92;93.61;101473.41;10103058;28;20066;-68
2021/09/12 04:59:13;;;;;;;39.45;29.42;;;;;;;16.92;93.37;101469.81;10108473;28;20078;-68
2021/09/12 05:04:10;;;;;;;37.80;28.42;;;;;;;16.95;93.38;101474.66;10106129;28;20327;-68
2021/09/12 05:09:06;;;;;;;43.13;31.08;;;;;;;16.89;93.15;101474.06;10108233;28;20660;-68
2021/09/12 05:14:03;;;;;;;42.28;28.98;;;;;;;16.90;93.28;101477.66;10101247;28;20498;-70
2021/09/12 05:18:59;;;;;;;38.97;28.65;;;;;;;16.90;93.40;101478.44;10096472;28;20133;-70
2021/09/12 05:23:56;;;;;;;38.38;27.88;;;;;;;16.94;93.62;101484.91;10087961;28;20048;-70
2021/09/12 05:28:52;;;;;;;36.38;27.77;;;;;;;16.97;93.63;101484.22;10089990;28;20592;-70
2021/09/12 05:33:48;;;;;;;43.17;30.48;;;;;;;16.94;93.52;101489.59;10087938;28;20039;-69
2021/09/12 05:38:45;;;;;;;43.97;30.17;;;;;;;16.93;94.21;101483.28;10088056;28;20047;-70
2021/09/12 05:43:41;;;;;;;45.95;32.38;;;;;;;16.95;93.82;101486.50;10087979;28;20039;-68
2021/09/12 05:48:38;;;;;;;42.10;29.52;;;;;;;16.97;94.32;101494.47;10087720;28;20098;-70
2021/09/12 05:53:34;;;;;;;46.03;29.90;;;;;;;17.01;94.39;101501.72;10096815;28;20149;-68
2021/09/12 05:58:31;;;;;;;42.83;30.65;;;;;;;17.03;94.21;101499.44;10097456;28;20046;-70
2021/09/12 06:03:27;;;;;;;43.70;29.77;;;;;;;17.02;94.28;101497.81;10106702;28;20143;-70
2021/09/12 06:08:24;;;;;;;41.47;30.40;;;;;;;17.06;94.28;101503.47;10104121;28;20857;-70
2021/09/12 06:13:25;;;;;;;42.10;30.70;;;;;;;17.04;93.57;101517.59;10106568;28;20055;-69
2021/09/12 06:18:21;;;;;;;45.92;31.73;;;;;;;16.98;93.61;101513.44;10107596;28;20125;-69
2021/09/12 06:23:18;;;;;;;45.40;30.88;;;;;;;17.00;93.91;101508.38;10108389;28;20051;-69
2021/09/12 06:28:14;;;;;;;36.50;27.25;;;;;;;17.06;93.86;101503.47;10100631;28;20130;-69
2021/09/12 06:33:11;;;;;;;39.85;28.05;;;;;;;17.08;93.54;101511.38;10108697;28;20050;-68
2021/09/12 06:38:07;;;;;;;38.78;27.75;;;;;;;17.13;93.35;101508.44;10098663;28;20036;-68
2021/09/12 06:43:04;;;;;;;37.20;28.80;;;;;;;17.13;93.20;101502.91;10101703;28;20142;-68
2021/09/12 06:48:00;;;;;;;38.80;27.33;;;;;;;17.18;93.40;101510.97;10108405;28;20141;-68
2021/09/12 06:52:57;;;;;;;38.58;26.90;;;;;;;17.13;92.60;101505.66;10101187;28;20110;-68
2021/09/12 06:57:53;;;;;;;37.13;27.23;;;;;;;17.12;92.57;101510.34;10109237;28;20046;-68
2021/09/12 07:02:49;;;;;;;35.10;25.70;;;;;;;17.13;92.50;101508.44;10099901;28;20098;-68
2021/09/12 07:07:47;;;;;;;34.60;24.63;;;;;;;17.19;92.69;101504.28;10097410;28;20054;-70
2021/09/12 07:12:44;;;;;;;31.80;23.85;;;;;;;17.20;92.22;101503.94;10106621;28;20051;-70
2021/09/12 07:17:40;;;;;;;34.45;24.23;;;;;;;17.33;92.11;101507.50;10103089;28;20101;-70
2021/09/12 07:22:37;;;;;;;34.70;24.38;;;;;;;17.32;91.29;101505.91;10114921;28;20225;-71
2021/09/12 07:27:33;;;;;;;31.65;22.55;;;;;;;17.40;90.88;101507.72;10105790;28;20059;-69
2021/09/12 07:32:38;;;;;;;28.55;21.52;;;;;;;17.43;90.08;101512.59;10109417;28;20059;-69
2021/09/12 07:37:34;;;;;;;30.60;22.38;;;;;;;17.47;89.30;101512.69;10107561;28;20142;-68
2021/09/12 07:42:31;;;;;;;28.52;19.05;;;;;;;17.46;89.33;101511.88;10109495;28;20508;-70
2021/09/12 07:47:27;;;;;;;24.55;19.65;;;;;;;17.48;89.36;101510.75;10104926;28;20081;-69
2021/09/12 07:52:24;;;;;;;30.88;20.75;;;;;;;17.52;89.41;101514.41;10106804;28;20054;-70
2021/09/12 07:57:20;;;;;;;28.90;20.45;;;;;;;17.52;88.79;101519.94;10103866;28;20113;-70
2021/09/12 08:02:16;;;;;;;25.75;18.60;;;;;;;17.61;89.40;101517.88;10104769;28;20075;-70
2021/09/12 08:07:13;;;;;;;30.70;22.05;;;;;;;17.55;89.00;101522.03;10105490;28;20543;-70
2021/09/12 08:12:12;;;;;;;26.25;19.20;;;;;;;17.68;89.69;101523.63;10110239;28;20058;-70
2021/09/12 08:17:09;;;;;;;29.10;20.85;;;;;;;17.66;88.82;101525.94;10105213;28;20063;-68
2021/09/12 08:22:05;;;;;;;25.35;19.10;;;;;;;17.75;88.82;101534.91;10109180;28;20046;-68
2021/09/12 08:27:02;;;;;;;32.88;21.02;;;;;;;17.83;88.30;101536.00;10113076;28;20446;-69
2021/09/12 08:31:59;;;;;;;27.25;19.30;;;;;;;17.86;88.23;101538.84;10107577;28;20051;-68
2021/09/12 08:36:55;;;;;;;28.60;20.88;;;;;;;17.86;87.04;101538.84;10096845;28;20078;-69
2021/09/12 08:41:52;;;;;;;28.05;21.23;;;;;;;18.03;87.11;101539.75;10095907;28;20059;-69
2021/09/12 08:46:48;;;;;;;33.28;21.08;;;;;;;18.09;86.55;101547.47;10087782;28;20044;-69
2021/09/12 08:51:45;;;;;;;29.95;19.42;;;;;;;18.18;86.05;101529.94;10087474;28;20137;-69
2021/09/12 08:56:41;;;;;;;27.42;18.63;;;;;;;18.29;85.39;101531.88;10082111;28;20047;-69
2021/09/12 09:01:38;;;;;;;23.20;16.92;;;;;;;18.37;85.79;101532.88;10094144;28;20478;-69
2021/09/12 09:06:37;;;;;;;24.77;17.38;;;;;;;18.25;85.05;101525.41;10088402;28;20058;-69
2021/09/12 09:11:39;;;;;;;24.83;17.25;;;;;;;18.21;84.51;101532.00;10087879;28;20058;-69
2021/09/12 09:16:35;;;;;;;23.83;17.73;;;;;;;18.06;85.30;101539.88;10093361;28;20065;-69
2021/09/12 09:21:38;;;;;;;25.23;16.95;;;;;;;18.11;85.78;101544.38;10088915;28;20146;-69
2021/09/12 09:26:37;;;;;;;23.65;17.42;;;;;;;18.18;85.92;101541.81;10089607;28;20130;-69
2021/09/12 09:31:34;;;;;;;26.33;17.20;;;;;;;18.25;85.50;101553.09;10100356;28;20558;-70
2021/09/12 09:36:30;;;;;;;26.45;17.05;;;;;;;18.27;84.86;101549.97;10093686;28;20130;-69
2021/09/12 09:41:35;;;;;;;29.45;18.45;;;;;;;18.27;85.27;101550.78;10093170;28;20051;-69
2021/09/12 09:46:40;;;;;;;27.20;17.83;;;;;;;18.43;85.21;101558.38;10077716;28;20074;-71
2021/09/12 09:51:36;;;;;;;24.83;16.42;;;;;;;18.58;84.06;101554.03;10085563;28;20567;-68
2021/09/12 09:56:33;;;;;;;21.45;14.35;;;;;;;18.64;83.85;101570.03;10085207;28;20078;-69
2021/09/12 10:01:30;;;;;;;19.60;14.20;;;;;;;18.47;82.97;101565.63;10089411;28;20506;-69
2021/09/12 10:06:28;;;;;;;23.02;15.65;;;;;;;18.33;82.70;101559.63;10098329;28;20793;-68
2021/09/12 10:11:25;;;;;;;24.40;14.52;;;;;;;18.45;82.30;101556.03;10092661;28;20074;-69
2021/09/12 10:16:22;;;;;;;20.05;12.80;;;;;;;18.61;82.15;101556.91;10102666;28;20113;-69
2021/09/12 10:21:24;;;;;;;23.00;12.27;;;;;;;18.76;81.65;101549.00;10091004;28;20502;-69
2021/09/12 10:26:34;;;;;;;18.73;12.60;;;;;;;18.78;80.58;101552.25;10093967;28;20056;-69
2021/09/12 10:31:33;;;;;;;22.85;14.13;;;;;;;18.82;79.80;101553.13;10080886;28;20074;-69
2021/09/12 10:36:30;;;;;;;22.02;12.52;;;;;;;18.87;80.00;101550.13;10088620;28;20400;-69
2021/09/12 10:41:27;;;;;;;20.92;12.80;;;;;;;19.11;78.75;101543.63;10085368;28;20062;-69
2021/09/12 10:46:24;;;;;;;18.75;11.30;;;;;;;19.46;76.53;101543.72;10083784;28;20071;-69
2021/09/12 10:51:20;;;;;;;17.38;10.63;;;;;;;19.72;76.34;101539.63;10083484;28;20061;-69
2021/09/12 10:56:17;;;;;;;16.58;10.52;;;;;;;19.55;75.01;101546.31;10081177;28;20134;-69
2021/09/12 11:01:23;;;;;;;17.55;11.10;;;;;;;19.41;76.24;101541.22;10088963;28;20121;-69
2021/09/12 11:06:20;;;;;;;17.63;10.10;;;;;;;19.17;75.82;101541.38;10093244;28;20057;-68
2021/09/12 11:11:16;;;;;;;19.48;10.45;;;;;;;19.11;76.77;101544.44;10112657;28;20158;-68
2021/09/12 11:16:20;;;;;;;16.35;10.02;;;;;;;19.01;77.00;101533.88;10107537;28;20101;-69
2021/09/12 11:21:34;;;;;;;16.98;10.68;;;;;;;19.01;77.67;101524.78;10107253;28;20055;-69
2021/09/12 11:26:55;;;;;;;17.50;10.23;;;;;;;19.13;78.38;101527.44;10107282;28;20106;-69
2021/09/12 11:32:00;;;;;;;17.25;9.68;;;;;;;19.49;77.57;101520.81;10102975;28;20517;-70
2021/09/12 11:36:59;;;;;;;16.05;9.40;;;;;;;19.70;75.73;101528.06;10105948;28;20564;-69
2021/09/12 11:41:58;;;;;;;14.73;8.70;;;;;;;19.69;74.68;101518.16;10100677;28;20047;-70
2021/09/12 11:46:54;;;;;;;14.32;8.20;;;;;;;19.81;75.02;101518.03;10101609;28;20043;-70
2021/09/12 11:51:51;;;;;;;15.10;8.93;;;;;;;19.81;73.80;101515.25;10097434;28;20130;-70
2021/09/12 11:57:06;;;;;;;15.10;7.97;;;;;;;19.57;72.38;101510.72;10091945;28;20055;-70
2021/09/12 12:02:03;;;;;;;12.15;7.57;;;;;;;19.45;73.66;101519.94;10093763;28;20050;-70
2021/09/12 12:07:00;;;;;;;11.80;6.35;;;;;;;19.36;72.18;101512.97;10100918;28;20039;-70
2021/09/12 12:12:10;;;;;;;10.60;6.32;;;;;;;19.48;73.30;101505.34;10112181;28;20081;-70
2021/09/12 12:17:07;;;;;;;8.40;5.03;;;;;;;19.87;70.45;101508.25;10105485;28;20097;-69
2021/09/12 12:22:06;;;;;;;12.85;6.53;;;;;;;20.19;68.96;101508.16;10105920;28;20051;-69
2021/09/12 12:27:29;;;;;;;11.70;5.90;;;;;;;20.45;67.19;101510.28;10111955;28;20078;-69
2021/09/12 12:32:30;;;;;;;10.77;6.25;;;;;;;20.46;67.74;101505.53;10082817;28;20499;-70
2021/09/12 12:37:32;;;;;;;9.52;5.30;;;;;;;20.36;67.92;101496.59;10087080;28;20227;-70
2021/09/12 12:42:40;;;;;;;10.25;5.28;;;;;;;20.27;67.38;101500.78;10085317;28;20042;-71
2021/09/12 12:47:36;;;;;;;10.27;5.03;;;;;;;20.32;67.30;101498.50;10094456;28;20066;-69
2021/09/12 12:52:33;;;;;;;10.95;5.63;;;;;;;20.21;67.71;101499.44;10088684;28;20074;-69
2021/09/12 12:57:29;;;;;;;9.95;5.20;;;;;;;20.10;67.95;101499.25;10113129;28;20043;-70
2021/09/12 13:02:26;;;;;;;7.72;4.75;;;;;;;20.12;68.96;101502.44;10105447;28;20126;-70
2021/09/12 13:07:22;;;;;;;9.15;5.20;;;;;;;20.11;69.59;101493.31;10104027;28;20055;-70
2021/09/12 13:12:19;;;;;;;13.38;5.72;;;;;;;20.08;68.97;101498.81;10088627;28;20130;-72
2021/09/12 13:17:15;;;;;;;10.27;5.32;;;;;;;20.10;69.98;101493.69;10094017;28;20082;-72
2021/09/12 13:22:12;;;;;;;11.13;5.03;;;;;;;20.15;70.10;101496.19;10098469;28;20051;-72
2021/09/12 13:27:08;;;;;;;8.18;5.03;;;;;;;20.25;69.42;101490.03;10087903;28;20529;-71
2021/09/12 13:32:05;;;;;;;8.43;4.85;;;;;;;20.30;68.46;101486.94;10091149;28;20066;-71
2021/09/12 13:37:01;;;;;;;7.93;4.75;;;;;;;20.30;67.99;101475.06;10090516;28;20074;-71
2021/09/12 13:42:04;;;;;;;10.15;4.93;;;;;;;20.35;67.85;101475.56;10323319;27;20619;-70
2021/09/12 13:47:01;;;;;;;9.98;5.47;;;;;;;20.32;68.58;101470.72;10280408;28;20041;-70
2021/09/12 13:51:58;;;;;;;8.68;5.30;;;;;;;20.29;69.17;101468.69;10259028;28;20045;-71
2021/09/12 13:56:54;;;;;;;7.82;5.35;;;;;;;20.23;70.04;101459.03;10252107;28;20065;-70
2021/09/12 14:01:50;;;;;;;9.93;5.10;;;;;;;20.12;70.14;101466.34;10258214;28;20079;-72
2021/09/12 14:06:47;;;;;;;9.40;4.78;;;;;;;20.00;70.61;101466.50;10258056;28;20063;-71
2021/09/12 14:11:44;;;;;;;10.07;5.63;;;;;;;19.84;70.72;101469.31;10256001;28;20041;-71
2021/09/12 14:16:40;;;;;;;10.63;5.53;;;;;;;19.73;71.15;101463.56;10252012;28;20099;-71
2021/09/12 14:21:37;;;;;;;14.93;5.82;;;;;;;19.67;71.24;101476.84;10258453;28;20084;-71
2021/09/12 14:26:33;;;;;;;5.85;2.38;;;;;;;19.48;66.35;101477.63;10255972;28;20129;-70
2021/09/12 14:31:30;;;;;;;4.65;1.70;;;;;;;19.30;64.55;101468.88;10252940;28;20068;-71
2021/09/12 14:36:26;;;;;;;4.13;1.63;;;;;;;19.16;64.28;101479.59;10252153;28;20045;-71
2021/09/12 14:41:23;;;;;;;4.10;1.80;;;;;;;19.05;64.33;101471.03;10253284;28;20144;-71
2021/09/12 14:46:20;;;;;;;5.95;2.13;;;;;;;19.01;66.16;101478.47;10251074;28;20069;-70
2021/09/12 14:51:16;;;;;;;4.82;2.25;;;;;;;19.02;66.44;101463.44;10233376;28;20045;-70
2021/09/12 14:56:17;;;;;;;15.65;7.05;;;;;;;18.98;66.80;101468.06;10225333;28;20068;-70
2021/09/12 15:01:13;;;;;;;7.30;2.25;;;;;;;18.93;67.25;101474.69;10226158;28;20395;-70
2021/09/12 15:06:10;;;;;;;5.13;2.15;;;;;;;18.87;67.91;101472.56;10218641;28;20464;-70
2021/09/12 15:11:07;;;;;;;12.75;3.05;;;;;;;18.79;69.09;101460.47;10222088;28;20045;-70
2021/09/12 15:16:04;;;;;;;4.95;1.75;;;;;;;18.67;69.93;101464.06;10221399;28;20077;-70
2021/09/12 15:21:00;;;;;;;5.00;1.60;;;;;;;18.48;72.27;101475.03;10224121;28;20835;-70
2021/09/12 15:25:57;;;;;;;4.10;1.20;;;;;;;18.45;72.63;101471.00;10225597;28;20053;-69
2021/09/12 15:30:53;;;;;;;4.40;0.98;;;;;;;18.58;72.74;101471.75;10224211;28;20153;-69
2021/09/12 15:35:50;;;;;;;3.75;0.88;;;;;;;18.55;72.30;101477.19;10224574;28;20499;-69
2021/09/12 15:40:46;;;;;;;4.28;1.15;;;;;;;18.59;72.57;101470.59;10223896;28;20078;-70
2021/09/12 15:45:43;;;;;;;6.60;1.08;;;;;;;18.56;70.76;101468.53;10224325;28;20068;-70
2021/09/12 15:50:43;;;;;;;5.85;1.77;;;;;;;18.57;70.47;101459.06;10228937;28;20112;-70
2021/09/12 15:55:40;;;;;;;3.25;1.17;;;;;;;18.50;69.05;101464.41;10221043;28;20072;-70
2021/09/12 16:00:36;;;;;;;3.85;1.33;;;;;;;18.49;68.89;101465.56;10224286;28;20124;-70
2021/09/12 16:05:33;;;;;;;6.32;1.00;;;;;;;18.49;69.88;101468.31;10223497;28;20041;-70
2021/09/12 16:10:30;;;;;;;9.13;2.15;;;;;;;18.46;70.93;101469.03;10221746;28;20517;-70
2021/09/12 16:15:26;;;;;;;2.90;1.05;;;;;;;18.39;71.76;101471.63;10219012;28;20076;-69
2021/09/12 16:20:23;;;;;;;6.00;1.50;;;;;;;18.26;72.21;101476.38;10228173;28;20038;-70
2021/09/12 16:25:19;;;;;;;3.47;0.93;;;;;;;18.19;73.19;101476.97;10225030;28;20073;-69
2021/09/12 16:30:15;;;;;;;4.53;1.10;;;;;;;18.14;72.88;101480.00;10224666;28;20123;-70
2021/09/12 16:35:12;;;;;;;4.13;0.90;;;;;;;18.09;73.41;101488.56;10222858;28;20071;-70
2021/09/12 16:40:10;;;;;;;5.93;1.13;;;;;;;18.08;74.11;101475.88;10226246;28;20075;-69
2021/09/12 16:45:22;;;;;;;5.03;1.50;;;;;;;18.02;75.00;101471.75;10250605;28;20672;-69
2021/09/12 16:50:19;;;;;;;3.70;1.65;;;;;;;18.07;74.92;101460.44;10273535;28;20048;-70
2021/09/12 16:55:15;;;;;;;5.10;1.73;;;;;;;17.99;74.82;101473.25;10247084;28;20073;-69
2021/09/12 17:00:12;;;;;;;7.00;1.60;;;;;;;17.92;74.62;101472.25;10256985;28;20535;-67
2021/09/12 17:05:09;;;;;;;8.18;1.75;;;;;;;17.97;74.48;101480.31;10247304;28;20735;-69
2021/09/12 17:10:05;;;;;;;5.82;1.50;;;;;;;17.99;74.56;101478.00;10265266;28;20487;-68
2021/09/12 17:15:03;;;;;;;7.07;2.00;;;;;;;17.98;74.24;101476.38;10258116;28;20049;-69
2021/09/12 17:20:00;;;;;;;6.88;1.25;;;;;;;17.95;75.92;101477.06;10261309;28;20061;-69
2021/09/12 17:24:57;;;;;;;5.22;1.40;;;;;;;17.97;75.73;101474.75;10260535;28;20037;-68
2021/09/12 17:29:53;;;;;;;6.05;1.42;;;;;;;18.00;76.69;101479.59;10261687;28;20037;-69
2021/09/12 17:34:50;;;;;;;6.45;1.60;;;;;;;18.02;76.83;101477.28;10265498;28;20603;-69
2021/09/12 17:39:46;;;;;;;5.13;1.60;;;;;;;17.95;77.20;101477.06;10265263;28;20551;-68
2021/09/12 17:44:42;;;;;;;4.63;1.48;;;;;;;17.90;76.88;101480.09;10265869;28;20132;-69
2021/09/12 17:49:39;;;;;;;6.13;1.38;;;;;;;17.81;77.53;101478.25;10266184;28;20164;-69
2021/09/12 17:54:35;;;;;;;7.47;1.30;;;;;;;17.72;77.73;101474.78;10264588;28;20135;-69
2021/09/12 17:59:32;;;;;;;7.25;1.88;;;;;;;17.65;78.68;101485.63;10260480;28;20128;-68
2021/09/12 18:04:29;;;;;;;5.13;1.60;;;;;;;17.61;79.17;101481.94;10261061;28;20049;-69
2021/09/12 18:09:25;;;;;;;8.23;1.42;;;;;;;17.44;80.76;101497.59;10266288;28;20662;-69
2021/09/12 18:14:22;;;;;;;7.90;1.92;;;;;;;17.44;80.83;101496.81;10255738;28;20049;-69
2021/09/12 18:19:18;;;;;;;6.97;2.40;;;;;;;17.41;81.46;101491.97;10260351;28;20140;-69
2021/09/12 18:24:15;;;;;;;5.43;1.88;;;;;;;17.32;82.26;101500.38;10264436;28;20049;-69
2021/09/12 18:29:12;;;;;;;6.15;2.10;;;;;;;17.33;82.08;101503.94;10272260;28;20562;-69
2021/09/12 18:34:08;;;;;;;6.68;2.38;;;;;;;17.27;82.54;101500.59;10274200;28;20079;-68
2021/09/12 18:39:05;;;;;;;6.07;2.38;;;;;;;17.22;83.21;101503.59;10269979;28;20140;-69
2021/09/12 18:44:04;;;;;;;8.30;3.78;;;;;;;17.22;83.38;101511.91;10273841;28;20044;-69
2021/09/12 18:49:00;;;;;;;10.70;2.53;;;;;;;17.17;83.60;101520.38;10267356;28;20037;-69
2021/09/12 18:53:57;;;;;;;7.57;2.70;;;;;;;17.16;84.01;101524.31;10269404;28;20448;-68
2021/09/12 18:58:53;;;;;;;10.43;2.55;;;;;;;17.16;84.14;101535.38;10266665;28;20447;-70
2021/09/12 19:03:50;;;;;;;6.78;2.10;;;;;;;17.14;84.20;101537.66;10232297;28;20045;-68
2021/09/12 19:08:47;;;;;;;7.70;2.60;;;;;;;17.10;84.58;101547.78;10211732;28;20037;-69
2021/09/12 19:13:43;;;;;;;4.90;2.35;;;;;;;17.06;84.78;101541.31;10251384;28;20075;-69
2021/09/12 19:18:40;;;;;;;11.20;2.65;;;;;;;17.00;84.82;101538.78;10265506;28;20037;-69
2021/09/12 19:23:36;;;;;;;5.97;2.70;;;;;;;16.97;85.17;101546.94;10272137;28;20065;-69
2021/09/12 19:28:33;;;;;;;6.22;2.53;;;;;;;16.94;85.41;101547.63;10266680;28;20041;-68
2021/09/12 19:33:29;;;;;;;8.23;3.75;;;;;;;16.91;85.58;101545.53;10268199;28;20076;-69
2021/09/12 19:38:25;;;;;;;9.65;3.30;;;;;;;16.82;86.45;101551.16;10265470;28;20760;-69
2021/09/12 19:43:22;;;;;;;6.45;2.65;;;;;;;16.82;86.35;101553.91;10270620;28;20069;-69
2021/09/12 19:48:18;;;;;;;8.55;3.60;;;;;;;16.80;86.02;101553.44;10265985;28;20504;-69
2021/09/12 19:53:15;;;;;;;6.32;2.88;;;;;;;16.73;86.63;101545.69;10266511;28;20042;-69
2021/09/12 19:58:11;;;;;;;6.72;2.90;;;;;;;16.73;86.85;101542.09;10267635;28;20175;-69
2021/09/12 20:03:08;;;;;;;11.82;3.88;;;;;;;16.67;86.82;101558.09;10266461;28;20128;-68
2021/09/12 20:08:05;;;;;;;10.18;3.78;;;;;;;16.68;86.89;101556.13;10269934;28;20079;-69
2021/09/12 20:13:02;;;;;;;9.05;3.42;;;;;;;16.62;87.40;101561.06;10267908;28;20127;-69
2021/09/12 20:17:59;;;;;;;8.27;3.97;;;;;;;16.60;87.22;101558.63;10265799;28;20052;-71
2021/09/12 20:22:55;;;;;;;10.20;4.47;;;;;;;16.59;87.14;101568.06;10265869;28;20465;-71
2021/09/12 20:27:52;;;;;;;7.05;4.82;;;;;;;16.53;87.96;101574.94;10257664;28;20077;-69
2021/09/12 20:32:49;;;;;;;9.63;4.63;;;;;;;16.53;88.10;101572.19;10265936;28;20048;-69
2021/09/12 20:37:45;;;;;;;9.15;4.03;;;;;;;16.55;88.15;101583.69;10258585;28;20135;-69
2021/09/12 20:42:43;;;;;;;12.18;5.60;;;;;;;16.52;88.28;101578.81;10258886;28;20045;-69
2021/09/12 20:47:40;;;;;;;9.15;3.90;;;;;;;16.48;87.89;101577.91;10265123;28;20075;-68
2021/09/12 20:52:36;;;;;;;7.13;3.30;;;;;;;16.32;86.46;101580.47;10256933;28;20094;-68
2021/09/12 20:57:33;;;;;;;6.20;2.92;;;;;;;16.31;86.29;101578.03;10266774;28;20548;-68
2021/09/12 21:02:29;;;;;;;9.80;2.63;;;;;;;16.23;85.06;101573.38;10260072;28;20048;-68
2021/09/12 21:07:27;;;;;;;5.90;2.33;;;;;;;16.18;84.60;101577.97;10268023;28;20675;-68
2021/09/12 21:12:23;;;;;;;4.32;1.70;;;;;;;16.14;84.41;101578.97;10269413;28;20164;-69
2021/09/12 21:17:20;;;;;;;14.70;2.60;;;;;;;16.17;84.32;101568.03;10267065;28;20044;-69
2021/09/12 21:22:16;;;;;;;6.75;2.47;;;;;;;16.11;83.60;101574.13;10269048;28;20128;-69
2021/09/12 21:27:12;;;;;;;8.35;2.10;;;;;;;16.09;83.58;101577.22;10268428;28;20045;-69
2021/09/12 21:32:09;;;;;;;7.72;2.08;;;;;;;16.00;83.31;101568.19;10265060;28;20135;-69
2021/09/12 21:37:05;;;;;;;8.35;2.17;;;;;;;15.91;83.46;101570.19;10267696;28;20076;-69
2021/09/12 21:42:02;;;;;;;6.78;2.17;;;;;;;15.86;83.44;101573.13;10263537;28;20080;-69
2021/09/12 21:46:58;;;;;;;9.55;1.73;;;;;;;15.87;83.27;101564.50;10260965;28;20088;-69
2021/09/12 21:51:55;;;;;;;6.47;1.80;;;;;;;15.82;82.85;101572.19;10262467;28;20063;-69
2021/09/12 21:56:51;;;;;;;6.50;1.60;;;;;;;15.70;83.00;101576.44;10257950;28;20139;-69
2021/09/12 22:01:48;;;;;;;7.22;2.58;;;;;;;15.66;83.05;101575.44;10264916;28;20099;-68
2021/09/12 22:06:44;;;;;;;4.95;1.83;;;;;;;15.60;83.39;101570.47;10273184;28;20041;-68
2021/09/12 22:11:42;;;;;;;7.53;2.42;;;;;;;15.52;83.92;101569.34;10265833;28;20045;-68
2021/09/12 22:16:39;;;;;;;7.55;2.35;;;;;;;15.54;83.79;101567.88;10273739;28;20076;-68
2021/09/12 22:21:35;;;;;;;5.63;1.73;;;;;;;15.54;84.30;101572.59;10270877;28;20075;-69
2021/09/12 22:26:32;;;;;;;6.82;2.08;;;;;;;15.51;83.95;101565.00;10271543;28;20045;-68
2021/09/12 22:31:29;;;;;;;12.07;2.10;;;;;;;15.53;84.21;101568.22;10273107;28;20052;-69